Time;durP1;ratioP1;P1;durP2;ratioP2;P2;SDS_P1;SDS_P2;PMS_P1;PMS_P2;Temp;Humidity;BMP_temperature;BMP_pressure;BME280_temperature;BME280_humidity;BME280_pressure;Samples;Min_cycle;Max_cycle;Signal;HPM_P1;HPM_P2
2023/12/18 00:01:03;;;;;;;15.80;6.93;;;5.90;99.90;;;;;;4933523;29;20223;-57
2023/12/18 00:03:32;;;;;;;16.33;7.00;;;5.80;99.90;;;;;;4933526;29;20250;-56
2023/12/18 00:05:58;;;;;;;17.93;6.50;;;5.80;99.90;;;;;;4933552;29;20215;-58
2023/12/18 00:08:23;;;;;;;17.53;7.00;;;5.70;99.90;;;;;;4932996;29;20187;-56
2023/12/18 00:10:49;;;;;;;15.93;6.90;;;5.70;99.90;;;;;;4925842;29;20210;-56
2023/12/18 00:13:15;;;;;;;16.17;7.07;;;5.70;99.90;;;;;;4933643;29;20565;-53
2023/12/18 00:15:40;;;;;;;17.33;7.20;;;5.70;99.90;;;;;;4933359;29;20187;-55
2023/12/18 00:18:06;;;;;;;19.40;6.70;;;5.80;99.90;;;;;;4933498;29;20206;-54
2023/12/18 00:20:31;;;;;;;17.40;7.43;;;5.60;99.90;;;;;;4932558;29;20321;-57
2023/12/18 00:22:58;;;;;;;18.37;7.73;;;5.70;99.90;;;;;;4933368;29;20209;-56
2023/12/18 00:25:23;;;;;;;15.53;7.07;;;5.70;99.90;;;;;;4933288;29;20610;-57
2023/12/18 00:27:49;;;;;;;15.60;7.07;;;5.60;99.90;;;;;;4933419;29;20290;-55
2023/12/18 00:30:15;;;;;;;17.83;7.30;;;5.60;99.90;;;;;;4932417;29;20298;-55
2023/12/18 00:32:41;;;;;;;19.77;8.90;;;5.60;99.90;;;;;;4933169;29;20282;-58
2023/12/18 00:35:07;;;;;;;18.83;8.30;;;5.60;99.90;;;;;;4933131;29;20228;-57
2023/12/18 00:37:32;;;;;;;17.63;7.13;;;5.60;99.90;;;;;;4933288;29;20201;-57
2023/12/18 00:39:58;;;;;;;17.00;7.13;;;5.60;99.90;;;;;;4932222;29;20258;-57
2023/12/18 00:42:23;;;;;;;21.07;7.40;;;5.50;99.90;;;;;;4933059;29;20222;-58
2023/12/18 00:44:49;;;;;;;18.70;6.83;;;5.50;99.90;;;;;;4933029;29;20195;-56
2023/12/18 00:47:14;;;;;;;18.13;6.70;;;5.40;99.90;;;;;;4932903;29;20206;-57
2023/12/18 00:49:40;;;;;;;17.50;7.47;;;5.40;99.90;;;;;;4932042;29;20207;-55
2023/12/18 00:52:05;;;;;;;17.03;7.10;;;5.40;99.90;;;;;;4933201;29;20191;-56
2023/12/18 00:54:31;;;;;;;18.10;7.60;;;5.50;99.90;;;;;;4932892;29;20202;-56
2023/12/18 00:56:56;;;;;;;15.97;7.03;;;5.50;99.90;;;;;;4941001;29;20206;-58
2023/12/18 00:59:22;;;;;;;17.50;7.00;;;5.50;99.90;;;;;;4932333;29;20203;-58
2023/12/18 01:01:48;;;;;;;19.43;6.60;;;5.50;99.90;;;;;;4932906;29;20218;-58
2023/12/18 01:04:13;;;;;;;16.90;6.73;;;5.60;99.90;;;;;;4933065;29;20736;-58
2023/12/18 01:06:39;;;;;;;16.47;6.87;;;5.50;99.90;;;;;;4932857;29;20735;-57
2023/12/18 01:09:05;;;;;;;16.93;6.53;;;5.50;99.90;;;;;;4932189;29;20597;-56
2023/12/18 01:11:30;;;;;;;13.97;6.13;;;5.50;99.90;;;;;;4932829;29;20210;-57
2023/12/18 01:13:56;;;;;;;18.27;6.27;;;5.50;99.90;;;;;;4933064;29;20192;-58
2023/12/18 01:16:21;;;;;;;20.93;7.03;;;5.40;99.90;;;;;;4933019;29;20274;-58
2023/12/18 01:18:47;;;;;;;16.97;7.67;;;5.40;99.90;;;;;;4932136;29;20203;-56
2023/12/18 01:21:13;;;;;;;17.67;6.50;;;5.40;99.90;;;;;;4932718;29;20289;-58
2023/12/18 01:23:39;;;;;;;17.77;6.23;;;5.40;99.90;;;;;;4932948;29;20270;-56
2023/12/18 01:26:05;;;;;;;13.33;5.63;;;5.40;99.90;;;;;;4932858;29;20716;-58
2023/12/18 01:28:30;;;;;;;13.73;6.37;;;5.30;99.90;;;;;;4931831;29;20191;-55
2023/12/18 01:30:56;;;;;;;13.23;5.50;;;5.40;99.90;;;;;;4932705;29;20203;-57
2023/12/18 01:33:22;;;;;;;13.67;5.77;;;5.40;99.90;;;;;;4932816;29;20680;-57
2023/12/18 01:35:47;;;;;;;14.33;6.17;;;5.40;99.90;;;;;;4932571;29;20191;-57
2023/12/18 01:38:13;;;;;;;16.53;6.57;;;5.40;99.90;;;;;;4932892;29;20199;-57
2023/12/18 01:40:38;;;;;;;13.20;6.10;;;5.40;99.90;;;;;;4931834;29;20352;-58
2023/12/18 01:43:31;;;;;;;14.93;6.27;;;5.30;99.90;;;;;;4935504;29;20195;-56
2023/12/18 01:45:59;;;;;;;12.40;5.63;;;5.30;99.90;;;;;;4929345;29;20656;-52
2023/12/18 01:48:25;;;;;;;23.43;6.07;;;5.30;99.90;;;;;;4935394;29;20704;-59
2023/12/18 01:50:53;;;;;;;30.10;6.70;;;5.30;99.90;;;;;;4959074;28;20676;-51
2023/12/18 01:53:25;;;;;;;17.40;6.40;;;5.30;99.90;;;;;;4936276;28;20187;-56
2023/12/18 01:55:50;;;;;;;15.43;6.07;;;5.20;99.90;;;;;;4928207;28;20723;-56
2023/12/18 01:58:16;;;;;;;19.77;6.97;;;5.30;99.90;;;;;;4935950;29;20191;-56
2023/12/18 02:00:42;;;;;;;14.37;5.70;;;5.30;99.90;;;;;;4934910;29;20261;-58
2023/12/18 02:03:10;;;;;;;15.37;6.07;;;5.20;99.90;;;;;;4935844;29;20225;-57
2023/12/18 02:05:37;;;;;;;13.90;5.97;;;5.30;99.90;;;;;;4935841;29;20211;-57
2023/12/18 02:08:04;;;;;;;12.33;6.10;;;5.30;99.90;;;;;;4934464;29;20180;-52
2023/12/18 02:10:30;;;;;;;19.13;6.27;;;5.30;99.90;;;;;;4934785;29;20697;-56
2023/12/18 02:12:56;;;;;;;15.83;6.20;;;5.20;99.90;;;;;;4935717;29;20678;-56
2023/12/18 02:15:21;;;;;;;16.30;6.17;;;5.30;99.90;;;;;;4935574;29;20190;-51
2023/12/18 02:17:47;;;;;;;11.47;5.40;;;5.20;99.90;;;;;;4935495;29;20190;-52
2023/12/18 02:20:13;;;;;;;13.33;5.90;;;5.20;99.90;;;;;;4934691;29;20697;-52
2023/12/18 02:22:47;;;;;;;16.70;6.20;;;5.20;99.90;;;;;;4935424;29;20648;-53
2023/12/18 02:25:15;;;;;;;15.20;5.83;;;5.20;99.90;;;;;;4935469;29;20182;-53
2023/12/18 02:27:43;;;;;;;16.10;6.60;;;5.30;99.90;;;;;;4935336;29;20556;-51
2023/12/18 02:30:14;;;;;;;14.63;6.07;;;5.30;99.90;;;;;;4934816;29;20210;-55
2023/12/18 02:32:39;;;;;;;15.93;5.67;;;5.30;99.90;;;;;;4935409;29;20199;-53
2023/12/18 02:35:06;;;;;;;16.37;5.53;;;5.20;99.90;;;;;;4935219;29;20187;-51
2023/12/18 02:37:32;;;;;;;11.87;5.07;;;5.20;99.90;;;;;;4935087;29;20219;-52
2023/12/18 02:39:58;;;;;;;13.70;5.90;;;5.10;99.90;;;;;;4934375;29;20306;-55
2023/12/18 02:42:23;;;;;;;14.47;5.53;;;5.10;99.90;;;;;;4935123;29;20190;-53
2023/12/18 02:44:49;;;;;;;14.03;5.27;;;5.00;99.90;;;;;;4934965;29;20191;-54
2023/12/18 02:47:14;;;;;;;14.80;5.80;;;4.90;99.90;;;;;;4935351;29;20187;-54
2023/12/18 02:49:40;;;;;;;12.77;5.50;;;4.90;99.90;;;;;;4934246;29;20857;-56
2023/12/18 02:52:05;;;;;;;15.03;5.40;;;4.80;99.90;;;;;;4934907;29;20183;-52
2023/12/18 02:54:31;;;;;;;13.97;4.87;;;4.80;99.90;;;;;;4934849;29;20590;-54
2023/12/18 02:56:56;;;;;;;14.60;5.07;;;4.80;99.90;;;;;;4934847;29;20347;-54
2023/12/18 02:59:22;;;;;;;13.17;4.93;;;4.80;99.90;;;;;;4934083;29;20215;-53
2023/12/18 03:01:47;;;;;;;9.00;4.27;;;4.70;99.90;;;;;;4933803;29;20747;-52
2023/12/18 03:04:13;;;;;;;11.10;4.87;;;4.70;99.90;;;;;;4934942;29;20673;-55
2023/12/18 03:06:39;;;;;;;10.77;4.77;;;4.70;99.90;;;;;;4934767;29;20190;-56
2023/12/18 03:09:04;;;;;;;9.40;4.77;;;4.80;99.90;;;;;;4934068;29;20302;-54
2023/12/18 03:11:30;;;;;;;8.23;3.80;;;4.80;99.90;;;;;;4934385;29;20660;-53
2023/12/18 03:13:56;;;;;;;13.23;4.27;;;4.90;99.90;;;;;;4934567;29;20191;-51
2023/12/18 03:16:21;;;;;;;7.97;3.30;;;4.90;99.90;;;;;;4934319;29;20258;-53
2023/12/18 03:18:47;;;;;;;9.40;4.27;;;4.90;99.90;;;;;;4933463;29;20203;-55
2023/12/18 03:21:12;;;;;;;10.87;4.47;;;4.80;99.90;;;;;;4934394;29;20257;-53
2023/12/18 03:23:38;;;;;;;8.50;3.60;;;4.80;99.90;;;;;;4934230;29;20187;-53
2023/12/18 03:26:04;;;;;;;8.03;3.90;;;4.80;99.90;;;;;;4934283;29;20179;-55
2023/12/18 03:28:29;;;;;;;8.20;3.90;;;4.80;99.90;;;;;;4933408;29;20355;-55
2023/12/18 03:30:55;;;;;;;8.57;3.47;;;4.80;99.90;;;;;;4934270;29;20210;-52
2023/12/18 03:33:20;;;;;;;8.83;3.47;;;4.80;99.90;;;;;;4934311;29;20195;-54
2023/12/18 03:35:46;;;;;;;6.67;3.60;;;4.70;99.90;;;;;;4934152;29;20206;-56
2023/12/18 03:38:14;;;;;;;6.10;3.27;;;4.70;99.90;;;;;;4934266;29;20179;-55
2023/12/18 03:40:40;;;;;;;6.93;3.40;;;4.70;99.90;;;;;;4933122;29;20328;-56
2023/12/18 03:43:05;;;;;;;9.23;3.63;;;4.60;99.90;;;;;;4934352;29;20270;-55
2023/12/18 03:45:31;;;;;;;10.90;3.67;;;4.60;99.90;;;;;;4934394;29;20566;-55
2023/12/18 03:47:57;;;;;;;11.27;4.07;;;4.60;99.90;;;;;;4934331;29;20539;-53
2023/12/18 03:50:22;;;;;;;8.37;4.17;;;4.70;99.90;;;;;;4933376;29;20289;-52
2023/12/18 03:52:48;;;;;;;9.90;4.10;;;4.60;99.90;;;;;;4934316;29;20191;-58
2023/12/18 03:55:13;;;;;;;12.37;3.80;;;4.60;99.90;;;;;;4934731;29;20187;-58
2023/12/18 03:57:39;;;;;;;9.03;3.70;;;4.50;99.90;;;;;;4933873;29;20195;-58
2023/12/18 04:00:07;;;;;;;9.60;3.40;;;4.40;99.90;;;;;;4932874;29;20215;-58
2023/12/18 04:02:32;;;;;;;11.83;3.93;;;4.40;99.90;;;;;;4933362;29;20191;-58
2023/12/18 04:04:58;;;;;;;11.97;3.97;;;4.30;99.90;;;;;;4933505;29;20183;-55
2023/12/18 04:07:24;;;;;;;6.53;3.43;;;4.20;99.90;;;;;;4933894;29;20191;-56
2023/12/18 04:09:49;;;;;;;8.50;3.90;;;4.20;99.90;;;;;;4932777;29;20217;-55
2023/12/18 04:12:15;;;;;;;9.83;4.00;;;4.20;99.90;;;;;;4934224;29;20190;-56
2023/12/18 04:14:42;;;;;;;9.20;3.60;;;4.20;99.90;;;;;;4933714;29;20270;-58
2023/12/18 04:17:08;;;;;;;8.93;3.63;;;4.10;99.90;;;;;;4933653;29;20195;-55
2023/12/18 04:19:34;;;;;;;11.47;3.60;;;4.10;99.90;;;;;;4940627;29;20755;-56
2023/12/18 04:21:59;;;;;;;9.73;3.40;;;4.00;99.90;;;;;;4933710;29;20536;-57
2023/12/18 04:24:25;;;;;;;8.27;3.47;;;3.90;99.90;;;;;;4933349;29;20731;-57
2023/12/18 04:26:50;;;;;;;7.30;3.37;;;3.90;99.90;;;;;;4933103;29;20248;-56
2023/12/18 04:29:17;;;;;;;5.63;3.00;;;3.80;99.90;;;;;;4932644;29;20203;-58
2023/12/18 04:31:43;;;;;;;6.50;2.83;;;3.70;99.90;;;;;;4933375;29;20182;-56
2023/12/18 04:34:08;;;;;;;7.40;2.73;;;3.70;99.90;;;;;;4933293;29;20560;-57
2023/12/18 04:36:38;;;;;;;4.97;2.63;;;3.80;99.90;;;;;;4933192;29;20828;-57
2023/12/18 04:39:04;;;;;;;6.63;3.27;;;3.80;99.90;;;;;;4932379;29;20209;-58
2023/12/18 04:41:30;;;;;;;25.63;7.47;;;3.90;99.90;;;;;;4932988;29;20748;-56
2023/12/18 04:43:55;;;;;;;89.67;21.33;;;3.90;99.90;;;;;;4933265;29;20675;-58
2023/12/18 04:46:21;;;;;;;66.27;16.83;;;3.90;99.90;;;;;;4933054;29;20546;-56
2023/12/18 04:48:46;;;;;;;21.70;7.27;;;3.90;99.90;;;;;;4932248;29;20556;-57
2023/12/18 04:51:12;;;;;;;14.50;6.83;;;3.90;99.90;;;;;;4933213;29;20653;-56
2023/12/18 04:53:37;;;;;;;13.20;4.83;;;3.90;99.90;;;;;;4931707;29;20195;-58
2023/12/18 04:56:05;;;;;;;9.10;4.10;;;3.90;99.90;;;;;;4932932;29;20203;-57
2023/12/18 04:58:31;;;;;;;7.27;3.43;;;3.90;99.90;;;;;;4932373;29;20195;-56
2023/12/18 05:00:57;;;;;;;23.30;3.57;;;3.90;99.90;;;;;;4932744;29;20213;-57
2023/12/18 05:03:26;;;;;;;7.17;3.37;;;3.80;99.90;;;;;;4933041;29;20185;-55
2023/12/18 05:05:52;;;;;;;19.07;3.60;;;3.70;99.90;;;;;;4932814;29;20217;-55
2023/12/18 05:08:17;;;;;;;11.40;3.40;;;3.70;99.90;;;;;;4932749;29;20215;-53
2023/12/18 05:10:43;;;;;;;9.93;3.60;;;3.70;99.90;;;;;;4931981;29;20213;-57
2023/12/18 05:13:08;;;;;;;11.33;3.70;;;3.70;99.90;;;;;;4933133;29;20222;-54
2023/12/18 05:15:34;;;;;;;8.70;3.70;;;3.70;99.90;;;;;;4932727;29;20635;-56
2023/12/18 05:17:59;;;;;;;7.80;3.27;;;3.70;99.90;;;;;;4935777;29;20577;-58
2023/12/18 05:20:25;;;;;;;7.40;3.13;;;3.60;99.90;;;;;;4935946;29;20229;-53
2023/12/18 05:22:50;;;;;;;7.03;3.37;;;3.60;99.90;;;;;;4936492;29;20188;-54
2023/12/18 05:25:16;;;;;;;10.73;3.43;;;3.60;99.90;;;;;;4936715;29;20251;-56
2023/12/18 05:27:41;;;;;;;11.87;3.33;;;3.60;99.90;;;;;;4936392;29;20191;-56
2023/12/18 05:30:07;;;;;;;10.80;4.00;;;3.50;99.90;;;;;;4935698;29;20277;-58
2023/12/18 05:32:33;;;;;;;11.67;5.27;;;3.50;99.90;;;;;;4936401;29;20655;-57
2023/12/18 05:34:59;;;;;;;13.03;3.20;;;3.60;99.90;;;;;;4936549;29;20723;-57
2023/12/18 05:37:24;;;;;;;15.90;3.30;;;3.50;99.90;;;;;;4935231;29;20183;-56
2023/12/18 05:39:50;;;;;;;7.87;3.10;;;3.50;99.90;;;;;;4935505;29;20587;-57
2023/12/18 05:42:15;;;;;;;16.20;4.03;;;3.40;99.90;;;;;;4936270;29;20183;-58
2023/12/18 05:44:41;;;;;;;14.63;4.47;;;3.40;99.90;;;;;;4936063;29;20211;-56
2023/12/18 05:47:06;;;;;;;8.37;3.33;;;3.40;99.90;;;;;;4936217;29;20672;-58
2023/12/18 05:49:32;;;;;;;9.93;3.70;;;3.30;99.90;;;;;;4935278;29;20286;-57
2023/12/18 05:51:57;;;;;;;10.97;3.57;;;3.40;99.90;;;;;;4936070;29;20191;-57
2023/12/18 05:54:25;;;;;;;8.77;3.57;;;3.50;99.90;;;;;;4936095;29;20183;-58
2023/12/18 05:56:51;;;;;;;16.80;3.47;;;3.40;99.90;;;;;;4934426;29;20266;-58
2023/12/18 05:59:16;;;;;;;10.07;3.40;;;3.40;99.90;;;;;;4935258;29;20629;-58
2023/12/18 06:01:42;;;;;;;9.00;3.60;;;3.40;99.90;;;;;;4935548;29;20692;-57
2023/12/18 06:04:07;;;;;;;10.13;4.07;;;3.30;99.90;;;;;;4935899;29;20727;-58
2023/12/18 06:06:33;;;;;;;8.70;3.73;;;3.30;99.90;;;;;;4935737;29;20221;-57
2023/12/18 06:08:59;;;;;;;10.93;4.20;;;3.30;99.90;;;;;;4935213;29;20527;-56
2023/12/18 06:11:24;;;;;;;20.60;3.63;;;3.30;99.90;;;;;;4935729;29;20218;-57
2023/12/18 06:13:50;;;;;;;17.87;4.60;;;3.40;99.90;;;;;;4935463;29;20259;-57
2023/12/18 06:16:15;;;;;;;10.73;5.07;;;3.40;99.90;;;;;;4935622;29;20214;-54
2023/12/18 06:18:41;;;;;;;22.37;4.70;;;3.40;99.90;;;;;;4934750;29;20191;-56
2023/12/18 06:21:06;;;;;;;14.63;4.20;;;3.40;99.90;;;;;;4935386;29;20211;-56
2023/12/18 06:23:32;;;;;;;25.43;5.03;;;3.30;99.90;;;;;;4935486;29;20210;-54
2023/12/18 06:25:58;;;;;;;14.03;4.80;;;3.40;99.90;;;;;;4935535;29;20218;-56
2023/12/18 06:28:23;;;;;;;10.83;4.53;;;3.40;99.90;;;;;;4934258;29;20175;-56
2023/12/18 06:30:49;;;;;;;11.23;4.23;;;3.40;99.90;;;;;;4935115;29;20207;-57
2023/12/18 06:33:15;;;;;;;13.53;4.93;;;3.40;99.90;;;;;;4935502;29;20191;-55
2023/12/18 06:35:41;;;;;;;14.47;4.73;;;3.30;99.90;;;;;;4935125;29;20194;-52
2023/12/18 06:38:07;;;;;;;14.53;4.73;;;3.40;99.90;;;;;;4935422;29;20186;-53
2023/12/18 06:40:32;;;;;;;10.57;4.63;;;3.30;99.90;;;;;;4934073;29;20211;-51
2023/12/18 06:42:58;;;;;;;16.20;5.10;;;3.30;99.90;;;;;;4935221;29;20187;-52
2023/12/18 06:45:23;;;;;;;14.73;4.77;;;3.40;99.90;;;;;;4935453;29;20191;-55
2023/12/18 06:47:49;;;;;;;18.73;5.10;;;3.40;99.90;;;;;;4935535;29;20230;-54
2023/12/18 06:50:14;;;;;;;15.77;4.47;;;3.30;99.90;;;;;;4934680;29;20206;-67
2023/12/18 06:52:41;;;;;;;14.93;4.50;;;3.20;99.90;;;;;;4934881;29;20205;-55
2023/12/18 06:55:07;;;;;;;13.07;4.10;;;3.20;99.90;;;;;;4934966;29;20528;-51
2023/12/18 06:57:33;;;;;;;15.47;4.50;;;3.10;99.90;;;;;;4934682;29;20277;-52
2023/12/18 06:59:59;;;;;;;12.83;4.33;;;3.10;99.90;;;;;;4934181;29;20246;-55
2023/12/18 07:02:26;;;;;;;15.50;4.80;;;3.10;99.90;;;;;;4934844;29;20785;-53
2023/12/18 07:04:52;;;;;;;12.80;4.83;;;3.10;99.90;;;;;;4934783;29;20179;-55
2023/12/18 07:07:18;;;;;;;19.73;4.83;;;3.20;99.90;;;;;;4934885;29;20183;-57
2023/12/18 07:09:44;;;;;;;17.37;5.30;;;3.10;99.90;;;;;;4933682;29;20699;-57
2023/12/18 07:12:10;;;;;;;13.97;4.77;;;3.00;99.90;;;;;;4934483;29;20179;-56
2023/12/18 07:14:38;;;;;;;17.03;5.10;;;3.00;99.90;;;;;;4934494;29;20657;-56
2023/12/18 07:17:04;;;;;;;17.30;5.13;;;3.00;99.90;;;;;;4934739;29;20649;-56
2023/12/18 07:19:29;;;;;;;11.37;4.63;;;3.10;99.90;;;;;;4933546;29;20220;-57
2023/12/18 07:21:55;;;;;;;17.10;6.10;;;3.10;99.90;;;;;;4934404;29;20211;-53
2023/12/18 07:24:21;;;;;;;17.50;5.00;;;3.10;99.90;;;;;;4934341;29;20628;-56
2023/12/18 07:26:46;;;;;;;15.50;5.50;;;3.20;99.90;;;;;;4934164;29;20179;-55
2023/12/18 07:29:12;;;;;;;18.83;6.33;;;3.30;99.90;;;;;;4933560;29;20229;-56
2023/12/18 07:31:37;;;;;;;19.27;6.70;;;3.30;99.90;;;;;;4934104;29;20206;-55
2023/12/18 07:34:03;;;;;;;15.73;6.37;;;3.30;99.90;;;;;;4934283;29;20176;-54
2023/12/18 07:36:29;;;;;;;16.63;6.30;;;3.30;99.90;;;;;;4934266;29;20197;-57
2023/12/18 07:38:54;;;;;;;16.07;6.20;;;3.20;99.90;;;;;;4932712;29;20184;-56
2023/12/18 07:41:20;;;;;;;17.27;6.83;;;3.30;99.90;;;;;;4932762;29;20211;-56
2023/12/18 07:43:45;;;;;;;11.83;6.10;;;3.30;99.90;;;;;;4932972;29;20180;-55
2023/12/18 07:46:20;;;;;;;42.87;23.60;;;3.20;99.90;;;;;;4933044;29;20190;-58
2023/12/18 07:48:48;;;;;;;17.47;7.53;;;3.20;99.90;;;;;;4932575;29;20641;-53
2023/12/18 07:51:13;;;;;;;20.63;9.97;;;3.30;99.90;;;;;;4933384;29;20242;-51
2023/12/18 07:53:39;;;;;;;30.53;13.20;;;3.30;99.90;;;;;;4933283;29;20624;-53
2023/12/18 07:56:05;;;;;;;15.63;7.47;;;3.40;99.90;;;;;;4932576;29;20192;-54
2023/12/18 07:58:30;;;;;;;16.20;6.77;;;3.40;99.90;;;;;;4932527;29;20217;-57
2023/12/18 08:00:56;;;;;;;11.20;5.70;;;3.40;99.90;;;;;;4933062;29;20305;-52
2023/12/18 08:03:21;;;;;;;12.57;5.40;;;3.50;99.90;;;;;;4933095;29;20584;-53
2023/12/18 08:05:47;;;;;;;14.63;6.00;;;3.50;99.90;;;;;;4933268;29;20281;-54
2023/12/18 08:08:12;;;;;;;11.63;5.30;;;3.60;99.90;;;;;;4933058;29;20194;-54
2023/12/18 08:10:38;;;;;;;20.33;7.80;;;3.60;99.90;;;;;;4932205;29;20369;-55
2023/12/18 08:13:04;;;;;;;11.20;5.40;;;3.60;99.90;;;;;;4932901;29;20221;-56
2023/12/18 08:15:29;;;;;;;13.50;5.53;;;3.60;99.90;;;;;;4932759;29;20183;-57
2023/12/18 08:17:55;;;;;;;14.37;6.20;;;3.60;99.90;;;;;;4932972;29;20269;-55
2023/12/18 08:20:20;;;;;;;11.73;5.80;;;3.50;99.90;;;;;;4932380;29;20242;-55
2023/12/18 08:22:46;;;;;;;14.50;6.10;;;3.50;99.90;;;;;;4933028;29;20187;-59
2023/12/18 08:25:11;;;;;;;14.97;6.33;;;3.60;99.90;;;;;;4932895;29;20360;-56
2023/12/18 08:27:37;;;;;;;11.80;5.63;;;3.50;99.90;;;;;;4932468;29;20199;-56
2023/12/18 08:30:04;;;;;;;21.97;6.13;;;3.50;99.90;;;;;;4931960;28;20210;-54
2023/12/18 08:32:29;;;;;;;13.87;6.07;;;3.40;99.90;;;;;;4932836;29;20235;-57
2023/12/18 08:34:55;;;;;;;13.57;6.27;;;3.50;99.90;;;;;;4932614;28;20600;-57
2023/12/18 08:37:21;;;;;;;14.90;6.70;;;3.50;99.90;;;;;;4932662;29;20208;-57
2023/12/18 08:39:46;;;;;;;15.57;6.23;;;3.50;99.90;;;;;;4931515;29;20227;-55
2023/12/18 08:42:12;;;;;;;13.60;6.40;;;3.50;99.90;;;;;;4932466;29;20195;-56
2023/12/18 08:44:37;;;;;;;16.37;6.50;;;3.40;99.90;;;;;;4932387;29;20191;-56
2023/12/18 08:47:03;;;;;;;17.40;7.27;;;3.50;99.90;;;;;;4932388;29;20530;-56
2023/12/18 08:49:29;;;;;;;15.20;6.73;;;3.50;99.90;;;;;;4931845;29;20206;-54
2023/12/18 08:51:54;;;;;;;13.83;6.17;;;3.50;99.90;;;;;;4932157;29;20615;-56
2023/12/18 08:54:20;;;;;;;13.63;6.50;;;3.60;99.90;;;;;;4932530;29;20191;-57
2023/12/18 08:56:47;;;;;;;16.17;6.83;;;3.70;99.90;;;;;;4932658;29;20201;-54
2023/12/18 08:59:13;;;;;;;14.87;6.93;;;3.70;99.90;;;;;;4931575;29;20254;-55
2023/12/18 09:01:39;;;;;;;15.53;6.97;;;3.80;99.90;;;;;;4931149;29;20246;-56
2023/12/18 09:04:06;;;;;;;15.43;6.40;;;3.80;99.90;;;;;;4932496;29;20632;-54
2023/12/18 09:06:34;;;;;;;13.63;6.87;;;3.90;99.90;;;;;;4932336;29;20684;-55
2023/12/18 09:09:01;;;;;;;13.17;6.10;;;3.80;99.90;;;;;;4931502;29;20187;-57
2023/12/18 09:11:29;;;;;;;14.20;6.73;;;3.90;99.90;;;;;;4932200;29;20183;-55
2023/12/18 09:13:55;;;;;;;16.70;6.33;;;3.80;99.90;;;;;;4932241;29;20212;-57
2023/12/18 09:16:21;;;;;;;14.50;6.27;;;3.80;99.90;;;;;;4932243;29;20275;-54
2023/12/18 09:18:46;;;;;;;13.97;6.97;;;3.70;99.90;;;;;;4931595;29;20644;-54
2023/12/18 09:21:12;;;;;;;15.23;6.70;;;3.80;99.90;;;;;;4932022;29;20221;-57
2023/12/18 09:23:37;;;;;;;12.17;5.87;;;3.90;99.90;;;;;;4932101;29;20799;-57
2023/12/18 09:26:03;;;;;;;14.67;6.40;;;3.80;99.90;;;;;;4932209;29;20584;-58
2023/12/18 09:28:28;;;;;;;15.80;6.80;;;3.70;99.90;;;;;;4931428;29;20668;-56
2023/12/18 09:30:54;;;;;;;13.87;6.73;;;3.70;99.90;;;;;;4932159;29;20215;-57
2023/12/18 09:33:19;;;;;;;14.70;6.63;;;3.80;99.90;;;;;;4932179;29;20641;-55
2023/12/18 09:35:45;;;;;;;12.80;6.60;;;3.80;99.90;;;;;;4931810;29;20570;-52
2023/12/18 09:38:11;;;;;;;15.70;7.20;;;3.80;99.90;;;;;;4932007;29;20183;-55
2023/12/18 09:40:36;;;;;;;14.37;6.80;;;3.90;99.90;;;;;;4930789;29;20298;-57
2023/12/18 09:43:03;;;;;;;13.17;6.90;;;4.00;99.90;;;;;;4936171;29;20185;-55
2023/12/18 09:45:30;;;;;;;15.10;7.10;;;4.00;99.90;;;;;;4935681;28;20199;-53
2023/12/18 09:47:56;;;;;;;14.70;6.97;;;4.00;99.90;;;;;;4931867;29;20198;-56
2023/12/18 09:50:22;;;;;;;13.63;6.33;;;4.00;99.90;;;;;;4931188;29;20681;-55
2023/12/18 09:53:10;;;;;;;14.13;6.30;;;4.00;99.90;;;;;;4931737;29;20195;-55
2023/12/18 09:55:36;;;;;;;15.33;6.30;;;4.10;99.90;;;;;;4931450;29;20191;-55
2023/12/18 09:58:02;;;;;;;16.73;7.03;;;4.10;99.90;;;;;;4932052;29;20183;-55
2023/12/18 10:00:29;;;;;;;15.13;6.60;;;4.20;99.90;;;;;;4931076;29;20225;-55
2023/12/18 10:02:56;;;;;;;23.10;7.73;;;4.20;99.90;;;;;;4932969;29;20621;-55
2023/12/18 10:05:22;;;;;;;16.53;6.97;;;4.30;99.90;;;;;;4935229;29;20206;-55
2023/12/18 10:07:48;;;;;;;14.47;7.17;;;4.10;99.90;;;;;;4934890;29;20663;-57
2023/12/18 10:10:15;;;;;;;15.47;7.53;;;4.10;99.90;;;;;;4934230;29;20207;-57
2023/12/18 10:12:41;;;;;;;16.43;8.03;;;4.20;99.90;;;;;;4935107;29;20190;-57
2023/12/18 10:15:08;;;;;;;19.13;8.23;;;4.30;99.90;;;;;;4935043;29;20558;-54
2023/12/18 10:17:34;;;;;;;17.63;8.37;;;4.40;99.90;;;;;;4934946;29;20199;-57
2023/12/18 10:20:04;;;;;;;20.17;9.50;;;4.60;99.90;;;;;;4941960;29;20315;-58
2023/12/18 10:22:31;;;;;;;19.17;8.87;;;4.60;99.90;;;;;;4934820;29;20188;-57
2023/12/18 10:24:59;;;;;;;19.50;8.80;;;4.60;99.90;;;;;;4934743;29;20664;-55
2023/12/18 10:27:25;;;;;;;22.23;8.67;;;4.60;99.90;;;;;;4935005;29;20549;-56
2023/12/18 10:29:51;;;;;;;17.70;8.90;;;4.60;99.90;;;;;;4934101;29;20218;-58
2023/12/18 10:32:17;;;;;;;18.20;8.57;;;4.60;99.90;;;;;;4934706;29;20234;-56
2023/12/18 10:34:46;;;;;;;18.43;8.77;;;4.60;99.90;;;;;;4933226;29;20190;-56
2023/12/18 10:37:12;;;;;;;22.10;8.80;;;4.70;99.90;;;;;;4934772;29;20175;-56
2023/12/18 10:39:41;;;;;;;18.73;9.23;;;4.80;99.90;;;;;;4934116;29;20544;-59
2023/12/18 10:42:28;;;;;;;18.33;9.53;;;4.80;99.90;;;;;;4934544;29;20560;-55
2023/12/18 10:44:56;;;;;;;19.47;9.47;;;4.60;99.90;;;;;;4934457;29;20667;-53
2023/12/18 10:47:23;;;;;;;20.67;9.63;;;4.50;99.90;;;;;;4934472;29;20247;-56
2023/12/18 10:49:52;;;;;;;20.50;9.50;;;4.60;99.90;;;;;;4933485;29;20199;-59
2023/12/18 10:52:20;;;;;;;19.37;9.70;;;4.60;99.90;;;;;;4934512;29;20201;-55
2023/12/18 10:54:47;;;;;;;23.93;10.77;;;4.50;99.90;;;;;;4934201;29;20183;-55
2023/12/18 10:57:17;;;;;;;23.33;10.97;;;4.60;99.90;;;;;;4934357;29;20214;-51
2023/12/18 10:59:47;;;;;;;21.90;10.33;;;4.40;99.90;;;;;;4933460;29;20278;-55
2023/12/18 11:02:15;;;;;;;22.83;10.63;;;4.50;99.90;;;;;;4934132;29;20183;-55
2023/12/18 11:04:43;;;;;;;18.43;9.47;;;4.60;99.90;;;;;;4934253;29;20247;-56
2023/12/18 11:07:10;;;;;;;25.70;9.90;;;4.50;99.90;;;;;;4934228;29;20271;-56
2023/12/18 11:09:35;;;;;;;23.40;9.80;;;4.50;99.90;;;;;;4933386;29;20207;-56
2023/12/18 11:12:02;;;;;;;25.33;11.07;;;4.60;99.90;;;;;;4933961;29;20620;-55
2023/12/18 11:14:58;;;;;;;18.67;9.23;;;4.50;99.90;;;;;;4934109;29;20261;-57
2023/12/18 11:17:56;;;;;;;28.30;11.60;;;4.50;99.90;;;;;;4934242;29;20287;-55
2023/12/18 11:20:39;;;;;;;26.33;11.23;;;4.60;99.90;;;;;;4933325;29;20211;-55
2023/12/18 11:23:05;;;;;;;19.83;9.23;;;4.60;99.90;;;;;;4934011;29;20167;-56
2023/12/18 11:26:03;;;;;;;23.50;9.13;;;4.70;99.90;;;;;;4932036;29;20198;-56
2023/12/18 11:28:28;;;;;;;27.63;10.67;;;4.70;99.90;;;;;;4931345;29;20716;-53
2023/12/18 11:31:00;;;;;;;23.90;9.70;;;4.90;99.90;;;;;;4932889;29;20673;-57
2023/12/18 11:33:26;;;;;;;21.53;8.90;;;4.90;99.90;;;;;;4933736;29;20613;-56
2023/12/18 11:35:51;;;;;;;20.60;9.83;;;4.70;99.90;;;;;;4933515;29;20496;-57
2023/12/18 11:38:22;;;;;;;18.63;8.57;;;4.50;99.90;;;;;;4933618;29;20194;-54
2023/12/18 11:40:49;;;;;;;24.33;9.50;;;4.60;99.90;;;;;;4932754;29;20254;-56
2023/12/18 11:43:41;;;;;;;22.93;9.47;;;4.70;99.90;;;;;;4933342;29;20286;-58
2023/12/18 11:46:11;;;;;;;19.57;9.10;;;4.70;99.90;;;;;;4933420;29;20250;-54
2023/12/18 11:48:40;;;;;;;23.13;10.40;;;4.80;99.90;;;;;;4932884;29;20655;-51
2023/12/18 11:51:05;;;;;;;19.83;8.70;;;4.90;99.90;;;;;;4933123;29;20206;-56
2023/12/18 11:53:35;;;;;;;15.07;7.30;;;4.90;99.90;;;;;;4933532;29;20316;-57
2023/12/18 11:56:11;;;;;;;19.50;7.57;;;4.90;99.90;;;;;;4933203;29;20179;-58
2023/12/18 11:58:43;;;;;;;13.63;7.23;;;4.90;99.90;;;;;;4932347;29;20179;-55
2023/12/18 12:01:10;;;;;;;13.80;7.53;;;4.90;99.90;;;;;;4933090;29;20219;-56
2023/12/18 12:03:36;;;;;;;12.43;6.23;;;4.90;99.90;;;;;;4932703;29;20194;-57
2023/12/18 12:06:06;;;;;;;14.50;7.03;;;5.00;99.90;;;;;;4932948;29;20190;-58
2023/12/18 12:08:31;;;;;;;14.17;7.17;;;4.90;99.90;;;;;;4932626;29;20194;-58
2023/12/18 12:10:57;;;;;;;15.13;7.03;;;4.90;99.90;;;;;;4932732;29;20195;-55
2023/12/18 12:13:25;;;;;;;16.03;8.60;;;4.80;99.90;;;;;;4933006;29;20192;-57
2023/12/18 12:16:01;;;;;;;15.90;7.90;;;4.90;99.90;;;;;;4931932;29;20195;-58
2023/12/18 12:18:45;;;;;;;17.53;8.40;;;4.90;99.90;;;;;;4931945;29;20215;-54
2023/12/18 12:21:14;;;;;;;18.20;8.83;;;5.00;99.90;;;;;;4931330;29;20607;-56
2023/12/18 12:23:40;;;;;;;18.83;10.07;;;5.10;99.90;;;;;;4932658;29;20180;-57
2023/12/18 12:26:08;;;;;;;19.17;9.47;;;5.20;99.90;;;;;;4932248;29;20183;-58
2023/12/18 12:28:34;;;;;;;16.17;8.03;;;5.30;99.90;;;;;;4932108;29;20274;-55
2023/12/18 12:31:00;;;;;;;15.40;7.63;;;5.30;99.90;;;;;;4932446;29;20663;-57
2023/12/18 12:33:39;;;;;;;19.03;8.27;;;5.20;99.90;;;;;;4932550;29;20586;-56
2023/12/18 12:36:05;;;;;;;15.40;8.27;;;5.20;99.90;;;;;;4925747;29;20179;-56
2023/12/18 12:38:34;;;;;;;21.53;9.23;;;5.20;99.90;;;;;;4932142;29;20187;-55
2023/12/18 12:41:00;;;;;;;18.73;7.60;;;5.20;99.90;;;;;;4932271;29;20210;-56
2023/12/18 12:43:27;;;;;;;15.30;7.00;;;5.00;99.90;;;;;;4932600;29;20225;-56
2023/12/18 12:45:52;;;;;;;18.63;7.83;;;4.90;99.90;;;;;;4932598;29;20223;-56